sensor_id;sensor_type;location;lat;lon;timestamp;pressure;altitude;pressure_sealevel;temperature;humidity
71764;BME280;59602;52.142;5.408;2023-01-28T00:02:02;103151.31;;;3.78;76.93
71764;BME280;59602;52.142;5.408;2023-01-28T00:04:29;103148.34;;;3.80;76.68
71764;BME280;59602;52.142;5.408;2023-01-28T00:06:56;103159.63;;;3.82;76.54
71764;BME280;59602;52.142;5.408;2023-01-28T00:09:23;103158.81;;;3.81;76.76
71764;BME280;59602;52.142;5.408;2023-01-28T00:11:50;103157.22;;;3.80;76.61
71764;BME280;59602;52.142;5.408;2023-01-28T00:14:17;103155.59;;;3.79;76.57
71764;BME280;59602;52.142;5.408;2023-01-28T00:16:44;103169.63;;;3.76;76.62
71764;BME280;59602;52.142;5.408;2023-01-28T00:19:12;103169.88;;;3.74;76.43
71764;BME280;59602;52.142;5.408;2023-01-28T00:21:39;103169.63;;;3.76;76.74
71764;BME280;59602;52.142;5.408;2023-01-28T00:24:06;103166.66;;;3.78;77.03
71764;BME280;59602;52.142;5.408;2023-01-28T00:26:35;103171.50;;;3.76;77.02
71764;BME280;59602;52.142;5.408;2023-01-28T00:29:02;103166.66;;;3.72;77.15
71764;BME280;59602;52.142;5.408;2023-01-28T00:31:30;103166.94;;;3.66;76.53
71764;BME280;59602;52.142;5.408;2023-01-28T00:33:56;103168.56;;;3.67;77.01
71764;BME280;59602;52.142;5.408;2023-01-28T00:36:24;103170.16;;;3.68;77.40
71764;BME280;59602;52.142;5.408;2023-01-28T00:38:54;103171.25;;;3.67;76.56
71764;BME280;59602;52.142;5.408;2023-01-28T00:41:23;103169.63;;;3.66;77.18
71764;BME280;59602;52.142;5.408;2023-01-28T00:43:51;103162.66;;;3.65;76.58
71764;BME280;59602;52.142;5.408;2023-01-28T00:46:19;103158.88;;;3.66;76.58
71764;BME280;59602;52.142;5.408;2023-01-28T00:48:46;103166.16;;;3.65;76.89
71764;BME280;59602;52.142;5.408;2023-01-28T00:51:14;103158.09;;;3.65;76.67
71764;BME280;59602;52.142;5.408;2023-01-28T00:53:43;103168.59;;;3.62;76.73
71764;BME280;59602;52.142;5.408;2023-01-28T00:56:13;103163.22;;;3.62;76.67
71764;BME280;59602;52.142;5.408;2023-01-28T00:58:40;103169.09;;;3.64;77.21
71764;BME280;59602;52.142;5.408;2023-01-28T01:01:11;103156.75;;;3.63;77.14
71764;BME280;59602;52.142;5.408;2023-01-28T01:03:38;103162.69;;;3.60;76.89
71764;BME280;59602;52.142;5.408;2023-01-28T01:06:06;103165.09;;;3.61;76.59
71764;BME280;59602;52.142;5.408;2023-01-28T01:08:33;103153.25;;;3.62;76.75
71764;BME280;59602;52.142;5.408;2023-01-28T01:11:03;103154.59;;;3.65;76.93
71764;BME280;59602;52.142;5.408;2023-01-28T01:13:33;103152.16;;;3.68;77.10
71764;BME280;59602;52.142;5.408;2023-01-28T01:16:05;103150.81;;;3.66;77.19
71764;BME280;59602;52.142;5.408;2023-01-28T01:18:34;103161.56;;;3.66;76.92
71764;BME280;59602;52.142;5.408;2023-01-28T01:21:02;103154.31;;;3.66;76.46
71764;BME280;59602;52.142;5.408;2023-01-28T01:23:32;103164.28;;;3.61;76.57
71764;BME280;59602;52.142;5.408;2023-01-28T01:25:59;103162.13;;;3.63;76.11
71764;BME280;59602;52.142;5.408;2023-01-28T01:28:31;103153.50;;;3.66;76.47
71764;BME280;59602;52.142;5.408;2023-01-28T01:31:11;103158.09;;;3.60;76.15
71764;BME280;59602;52.142;5.408;2023-01-28T01:33:41;103161.84;;;3.59;76.00
71764;BME280;59602;52.142;5.408;2023-01-28T01:36:09;103160.25;;;3.58;75.75
71764;BME280;59602;52.142;5.408;2023-01-28T01:38:36;103155.94;;;3.62;75.55
71764;BME280;59602;52.142;5.408;2023-01-28T01:41:04;103164.03;;;3.62;75.42
71764;BME280;59602;52.142;5.408;2023-01-28T01:43:46;103163.22;;;3.62;74.74
71764;BME280;59602;52.142;5.408;2023-01-28T01:46:25;103165.91;;;3.62;74.63
71764;BME280;59602;52.142;5.408;2023-01-28T01:48:54;103168.88;;;3.60;74.84
71764;BME280;59602;52.142;5.408;2023-01-28T01:51:29;103171.56;;;3.60;75.29
71764;BME280;59602;52.142;5.408;2023-01-28T01:53:58;103182.06;;;3.62;75.10
71764;BME280;59602;52.142;5.408;2023-01-28T01:56:30;103175.59;;;3.58;75.26
71764;BME280;59602;52.142;5.408;2023-01-28T01:58:59;103171.56;;;3.55;75.11
71764;BME280;59602;52.142;5.408;2023-01-28T02:01:28;103176.66;;;3.57;75.14
71764;BME280;59602;52.142;5.408;2023-01-28T02:04:05;103179.09;;;3.58;75.41
71764;BME280;59602;52.142;5.408;2023-01-28T02:06:35;103173.19;;;3.56;75.89
71764;BME280;59602;52.142;5.408;2023-01-28T02:09:20;103177.19;;;3.59;75.57
71764;BME280;59602;52.142;5.408;2023-01-28T02:11:50;103184.75;;;3.62;75.68
71764;BME280;59602;52.142;5.408;2023-01-28T02:14:18;103171.28;;;3.62;75.27
71764;BME280;59602;52.142;5.408;2023-01-28T02:16:57;103179.34;;;3.62;75.01
71764;BME280;59602;52.142;5.408;2023-01-28T02:19:28;103188.22;;;3.62;75.51
71764;BME280;59602;52.142;5.408;2023-01-28T02:27:30;103176.13;;;3.60;75.04
71764;BME280;59602;52.142;5.408;2023-01-28T02:30:14;103191.19;;;3.61;75.42
71764;BME280;59602;52.142;5.408;2023-01-28T02:32:52;103197.91;;;3.58;74.82
71764;BME280;59602;52.142;5.408;2023-01-28T02:35:26;103190.41;;;3.55;74.41
71764;BME280;59602;52.142;5.408;2023-01-28T02:37:59;103179.91;;;3.53;75.73
71764;BME280;59602;52.142;5.408;2023-01-28T02:40:32;103186.38;;;3.58;75.59
71764;BME280;59602;52.142;5.408;2023-01-28T02:43:40;103187.69;;;3.60;74.38
71764;BME280;59602;52.142;5.408;2023-01-28T02:49:11;103184.22;;;3.49;74.61
71764;BME280;59602;52.142;5.408;2023-01-28T02:51:56;103187.72;;;3.50;74.81
71764;BME280;59602;52.142;5.408;2023-01-28T02:54:41;103189.06;;;3.47;74.66
71764;BME280;59602;52.142;5.408;2023-01-28T02:57:51;103188.81;;;3.49;74.68
71764;BME280;59602;52.142;5.408;2023-01-28T03:00:29;103189.06;;;3.47;75.04
71764;BME280;59602;52.142;5.408;2023-01-28T03:03:06;103181.25;;;3.51;75.51
71764;BME280;59602;52.142;5.408;2023-01-28T03:05:51;103169.97;;;3.49;75.23
71764;BME280;59602;52.142;5.408;2023-01-28T03:08:34;103171.03;;;3.48;74.86
71764;BME280;59602;52.142;5.408;2023-01-28T03:11:23;103175.63;;;3.42;74.16
71764;BME280;59602;52.142;5.408;2023-01-28T03:14:09;103170.78;;;3.39;74.42
71764;BME280;59602;52.142;5.408;2023-01-28T03:16:56;103178.59;;;3.41;74.56
71764;BME280;59602;52.142;5.408;2023-01-28T03:19:44;103178.84;;;3.39;73.92
71764;BME280;59602;52.142;5.408;2023-01-28T03:22:31;103177.25;;;3.38;74.05
71764;BME280;59602;52.142;5.408;2023-01-28T03:25:19;103175.09;;;3.40;73.98
71764;BME280;59602;52.142;5.408;2023-01-28T03:28:10;103169.47;;;3.42;73.58
71764;BME280;59602;52.142;5.408;2023-01-28T03:31:03;103177.50;;;3.37;73.58
71764;BME280;59602;52.142;5.408;2023-01-28T03:33:50;103185.88;;;3.35;73.28
71764;BME280;59602;52.142;5.408;2023-01-28T03:36:36;103181.56;;;3.29;73.35
71764;BME280;59602;52.142;5.408;2023-01-28T03:39:18;103175.09;;;3.30;73.19
71764;BME280;59602;52.142;5.408;2023-01-28T03:42:03;103175.66;;;3.32;73.04
71764;BME280;59602;52.142;5.408;2023-01-28T03:44:31;103181.81;;;3.32;73.41
71764;BME280;59602;52.142;5.408;2023-01-28T03:47:18;103183.19;;;3.35;73.20
71764;BME280;59602;52.142;5.408;2023-01-28T03:49:47;103182.09;;;3.36;72.65
71764;BME280;59602;52.142;5.408;2023-01-28T03:52:16;103177.81;;;3.35;72.75
71764;BME280;59602;52.142;5.408;2023-01-28T03:54:45;103191.25;;;3.35;72.34
71764;BME280;59602;52.142;5.408;2023-01-28T03:57:16;103184.78;;;3.26;72.16
71764;BME280;59602;52.142;5.408;2023-01-28T03:59:43;103177.25;;;3.28;72.74
71764;BME280;59602;52.142;5.408;2023-01-28T04:02:11;103183.16;;;3.30;72.10
71764;BME280;59602;52.142;5.408;2023-01-28T04:04:38;103177.00;;;3.24;72.27
71764;BME280;59602;52.142;5.408;2023-01-28T04:07:06;103186.41;;;3.27;72.36
71764;BME280;59602;52.142;5.408;2023-01-28T04:09:34;103180.47;;;3.30;72.86
71764;BME280;59602;52.142;5.408;2023-01-28T04:12:03;103182.91;;;3.31;72.47
71764;BME280;59602;52.142;5.408;2023-01-28T04:14:30;103190.72;;;3.33;73.17
71764;BME280;59602;52.142;5.408;2023-01-28T04:16:57;103195.00;;;3.34;73.13
71764;BME280;59602;52.142;5.408;2023-01-28T04:19:24;103193.09;;;3.35;72.17
71764;BME280;59602;52.142;5.408;2023-01-28T04:21:51;103198.78;;;3.33;72.89
71764;BME280;59602;52.142;5.408;2023-01-28T04:24:20;103195.56;;;3.31;72.68
71764;BME280;59602;52.142;5.408;2023-01-28T04:26:47;103210.59;;;3.27;71.96
71764;BME280;59602;52.142;5.408;2023-01-28T04:29:14;103218.94;;;3.25;71.95
71764;BME280;59602;52.142;5.408;2023-01-28T04:31:42;103213.31;;;3.22;70.90
71764;BME280;59602;52.142;5.408;2023-01-28T04:34:08;103218.69;;;3.22;70.98
71764;BME280;59602;52.142;5.408;2023-01-28T04:36:35;103214.66;;;3.24;71.60
71764;BME280;59602;52.142;5.408;2023-01-28T04:39:04;103224.06;;;3.27;71.50
71764;BME280;59602;52.142;5.408;2023-01-28T04:41:30;103225.66;;;3.23;71.37
71764;BME280;59602;52.142;5.408;2023-01-28T04:43:57;103224.88;;;3.17;71.44
71764;BME280;59602;52.142;5.408;2023-01-28T04:46:24;103222.97;;;3.12;70.93
71764;BME280;59602;52.142;5.408;2023-01-28T04:48:51;103212.78;;;3.09;71.23
71764;BME280;59602;52.142;5.408;2023-01-28T04:51:17;103213.59;;;3.15;71.75
71764;BME280;59602;52.142;5.408;2023-01-28T04:53:44;103215.72;;;3.18;70.98
71764;BME280;59602;52.142;5.408;2023-01-28T04:56:10;103202.03;;;3.20;71.67
71764;BME280;59602;52.142;5.408;2023-01-28T04:58:37;103206.31;;;3.21;71.28
71764;BME280;59602;52.142;5.408;2023-01-28T05:01:04;103202.53;;;3.17;71.84
71764;BME280;59602;52.142;5.408;2023-01-28T05:03:31;103202.03;;;3.20;71.75
71764;BME280;59602;52.142;5.408;2023-01-28T05:06:01;103196.09;;;3.23;71.92
71764;BME280;59602;52.142;5.408;2023-01-28T05:08:28;103194.19;;;3.23;71.96
71764;BME280;59602;52.142;5.408;2023-01-28T05:10:54;103204.16;;;3.23;71.77
71764;BME280;59602;52.142;5.408;2023-01-28T05:13:21;103203.09;;;3.19;72.09
71764;BME280;59602;52.142;5.408;2023-01-28T05:15:51;103192.63;;;3.17;72.38
71764;BME280;59602;52.142;5.408;2023-01-28T05:18:18;103198.78;;;3.12;72.50
71764;BME280;59602;52.142;5.408;2023-01-28T05:20:46;103189.66;;;3.14;72.43
71764;BME280;59602;52.142;5.408;2023-01-28T05:23:12;103191.78;;;3.17;72.49
71764;BME280;59602;52.142;5.408;2023-01-28T05:25:39;103200.41;;;3.19;72.75
71764;BME280;59602;52.142;5.408;2023-01-28T05:28:05;103198.50;;;3.19;72.50
71764;BME280;59602;52.142;5.408;2023-01-28T05:30:32;103195.00;;;3.19;72.51
71764;BME280;59602;52.142;5.408;2023-01-28T05:32:58;103193.97;;;3.20;72.91
71764;BME280;59602;52.142;5.408;2023-01-28T05:35:25;103206.56;;;3.19;72.86
71764;BME280;59602;52.142;5.408;2023-01-28T05:37:51;103208.75;;;3.17;72.87
71764;BME280;59602;52.142;5.408;2023-01-28T05:40:18;103211.16;;;3.14;72.62
71764;BME280;59602;52.142;5.408;2023-01-28T05:42:45;103206.34;;;3.10;72.48
71764;BME280;59602;52.142;5.408;2023-01-28T05:45:11;103205.50;;;3.10;72.42
71764;BME280;59602;52.142;5.408;2023-01-28T05:47:38;103206.06;;;3.07;72.88
71764;BME280;59602;52.142;5.408;2023-01-28T05:50:06;103204.72;;;3.04;72.25
71764;BME280;59602;52.142;5.408;2023-01-28T05:52:33;103208.75;;;3.07;71.79
71764;BME280;59602;52.142;5.408;2023-01-28T05:55:00;103201.22;;;3.04;71.27
71764;BME280;59602;52.142;5.408;2023-01-28T05:57:26;103205.25;;;3.06;71.90
71764;BME280;59602;52.142;5.408;2023-01-28T05:59:54;103215.19;;;3.11;72.12
71764;BME280;59602;52.142;5.408;2023-01-28T06:02:20;103210.88;;;3.05;71.96
71764;BME280;59602;52.142;5.408;2023-01-28T06:04:47;103209.00;;;3.05;71.68
71764;BME280;59602;52.142;5.408;2023-01-28T06:07:13;103207.94;;;3.06;71.81
71764;BME280;59602;52.142;5.408;2023-01-28T06:09:45;103199.06;;;2.96;71.31
71764;BME280;59602;52.142;5.408;2023-01-28T06:12:14;103205.50;;;2.89;71.74
71764;BME280;59602;52.142;5.408;2023-01-28T06:14:41;103207.13;;;2.90;71.66
71764;BME280;59602;52.142;5.408;2023-01-28T06:17:07;103203.91;;;2.94;71.80
71764;BME280;59602;52.142;5.408;2023-01-28T06:19:34;103204.97;;;2.98;71.80
71764;BME280;59602;52.142;5.408;2023-01-28T06:22:01;103206.88;;;2.97;71.87
71764;BME280;59602;52.142;5.408;2023-01-28T06:24:27;103199.34;;;2.99;71.97
71764;BME280;59602;52.142;5.408;2023-01-28T06:26:54;103201.22;;;2.99;72.16
71764;BME280;59602;52.142;5.408;2023-01-28T06:29:21;103201.50;;;2.97;72.18
71764;BME280;59602;52.142;5.408;2023-01-28T06:31:47;103208.22;;;3.00;72.05
71764;BME280;59602;52.142;5.408;2023-01-28T06:34:15;103205.22;;;3.01;72.23
71764;BME280;59602;52.142;5.408;2023-01-28T06:36:41;103198.78;;;3.02;72.25
71764;BME280;59602;52.142;5.408;2023-01-28T06:39:09;103218.16;;;2.99;72.63
71764;BME280;59602;52.142;5.408;2023-01-28T06:41:35;103216.81;;;3.02;72.10
71764;BME280;59602;52.142;5.408;2023-01-28T06:44:02;103221.91;;;2.98;72.66
71764;BME280;59602;52.142;5.408;2023-01-28T06:46:29;103222.72;;;2.94;72.67
71764;BME280;59602;52.142;5.408;2023-01-28T06:48:55;103228.34;;;2.92;72.73
71764;BME280;59602;52.142;5.408;2023-01-28T06:51:23;103223.78;;;2.93;72.69
71764;BME280;59602;52.142;5.408;2023-01-28T06:53:51;103224.06;;;2.91;72.43
71764;BME280;59602;52.142;5.408;2023-01-28T06:56:18;103232.38;;;2.89;72.50
71764;BME280;59602;52.142;5.408;2023-01-28T06:58:46;103242.31;;;2.89;72.80
71764;BME280;59602;52.142;5.408;2023-01-28T07:01:13;103243.13;;;2.89;72.88
71764;BME280;59602;52.142;5.408;2023-01-28T07:03:40;103245.25;;;2.87;72.39
71764;BME280;59602;52.142;5.408;2023-01-28T07:06:07;103240.44;;;2.84;72.08
71764;BME280;59602;52.142;5.408;2023-01-28T07:08:34;103241.50;;;2.83;72.33
71764;BME280;59602;52.142;5.408;2023-01-28T07:11:00;103238.81;;;2.83;72.54
71764;BME280;59602;52.142;5.408;2023-01-28T07:13:27;103236.94;;;2.84;72.83
71764;BME280;59602;52.142;5.408;2023-01-28T07:15:54;103235.59;;;2.86;72.31
71764;BME280;59602;52.142;5.408;2023-01-28T07:18:21;103238.56;;;2.85;72.82
71764;BME280;59602;52.142;5.408;2023-01-28T07:20:47;103240.19;;;2.86;72.95
71764;BME280;59602;52.142;5.408;2023-01-28T07:23:15;103250.09;;;2.85;72.47
71764;BME280;59602;52.142;5.408;2023-01-28T07:25:42;103249.84;;;2.87;72.40
71764;BME280;59602;52.142;5.408;2023-01-28T07:28:09;103255.47;;;2.85;72.68
71764;BME280;59602;52.142;5.408;2023-01-28T07:30:36;103249.00;;;2.81;72.51
71764;BME280;59602;52.142;5.408;2023-01-28T07:33:02;103241.25;;;2.80;72.59
71764;BME280;59602;52.142;5.408;2023-01-28T07:35:31;103246.63;;;2.80;72.25
71764;BME280;59602;52.142;5.408;2023-01-28T07:37:59;103255.47;;;2.80;72.75
71764;BME280;59602;52.142;5.408;2023-01-28T07:40:27;103268.38;;;2.83;72.29
71764;BME280;59602;52.142;5.408;2023-01-28T07:42:54;103261.13;;;2.84;72.69
71764;BME280;59602;52.142;5.408;2023-01-28T07:45:23;103259.50;;;2.83;72.03
71764;BME280;59602;52.142;5.408;2023-01-28T07:47:55;103268.91;;;2.80;72.42
71764;BME280;59602;52.142;5.408;2023-01-28T07:50:24;103275.63;;;2.78;72.47
71764;BME280;59602;52.142;5.408;2023-01-28T07:52:51;103283.69;;;2.78;72.40
71764;BME280;59602;52.142;5.408;2023-01-28T07:55:18;103269.69;;;2.81;73.01
71764;BME280;59602;52.142;5.408;2023-01-28T07:58:04;103268.91;;;2.85;72.97
71764;BME280;59602;52.142;5.408;2023-01-28T08:00:33;103276.44;;;2.88;73.13
71764;BME280;59602;52.142;5.408;2023-01-28T08:03:05;103270.00;;;2.89;72.77
71764;BME280;59602;52.142;5.408;2023-01-28T08:05:39;103277.53;;;2.93;72.61
71764;BME280;59602;52.142;5.408;2023-01-28T08:08:08;103279.41;;;2.97;73.06
71764;BME280;59602;52.142;5.408;2023-01-28T08:10:35;103270.53;;;2.97;73.22
71764;BME280;59602;52.142;5.408;2023-01-28T08:13:05;103272.41;;;2.96;72.88
71764;BME280;59602;52.142;5.408;2023-01-28T08:15:32;103266.50;;;2.94;73.29
71764;BME280;59602;52.142;5.408;2023-01-28T08:18:01;103275.66;;;2.93;72.83
71764;BME280;59602;52.142;5.408;2023-01-28T08:20:29;103276.72;;;2.97;73.31
71764;BME280;59602;52.142;5.408;2023-01-28T08:23:14;103285.84;;;2.96;73.10
71764;BME280;59602;52.142;5.408;2023-01-28T08:25:42;103289.63;;;3.00;73.27
71764;BME280;59602;52.142;5.408;2023-01-28T08:28:09;103281.31;;;3.02;72.84
71764;BME280;59602;52.142;5.408;2023-01-28T08:30:37;103297.16;;;3.03;72.83
71764;BME280;59602;52.142;5.408;2023-01-28T08:33:07;103289.91;;;3.04;73.36
71764;BME280;59602;52.142;5.408;2023-01-28T08:35:34;103298.53;;;3.06;73.70
71764;BME280;59602;52.142;5.408;2023-01-28T08:38:03;103302.25;;;3.05;72.83
71764;BME280;59602;52.142;5.408;2023-01-28T08:40:31;103290.97;;;3.08;73.24
71764;BME280;59602;52.142;5.408;2023-01-28T08:42:58;103293.41;;;3.09;73.06
71764;BME280;59602;52.142;5.408;2023-01-28T08:45:26;103290.44;;;3.11;72.57
71764;BME280;59602;52.142;5.408;2023-01-28T08:47:56;103294.47;;;3.14;73.39
71764;BME280;59602;52.142;5.408;2023-01-28T08:50:25;103304.97;;;3.15;73.31
71764;BME280;59602;52.142;5.408;2023-01-28T08:52:57;103309.81;;;3.18;73.31
71764;BME280;59602;52.142;5.408;2023-01-28T08:55:25;103310.59;;;3.19;73.58
71764;BME280;59602;52.142;5.408;2023-01-28T08:57:52;103323.53;;;3.22;73.34
71764;BME280;59602;52.142;5.408;2023-01-28T09:00:19;103324.88;;;3.24;72.99
71764;BME280;59602;52.142;5.408;2023-01-28T09:02:49;103324.06;;;3.24;73.12
71764;BME280;59602;52.142;5.408;2023-01-28T09:05:16;103321.09;;;3.25;73.15
71764;BME280;59602;52.142;5.408;2023-01-28T09:07:42;103321.38;;;3.29;72.41
71764;BME280;59602;52.142;5.408;2023-01-28T09:10:09;103323.28;;;3.28;72.27
71764;BME280;59602;52.142;5.408;2023-01-28T09:12:36;103325.66;;;3.30;72.11
71764;BME280;59602;52.142;5.408;2023-01-28T09:15:06;103312.50;;;3.33;72.02
71764;BME280;59602;52.142;5.408;2023-01-28T09:17:33;103324.59;;;3.36;71.63
71764;BME280;59602;52.142;5.408;2023-01-28T09:20:00;103328.94;;;3.37;71.67
71764;BME280;59602;52.142;5.408;2023-01-28T09:22:26;103334.00;;;3.39;71.41
71764;BME280;59602;52.142;5.408;2023-01-28T09:24:53;103326.75;;;3.34;71.44
71764;BME280;59602;52.142;5.408;2023-01-28T09:27:20;103333.75;;;3.40;71.47
71764;BME280;59602;52.142;5.408;2023-01-28T09:29:47;103345.59;;;3.44;71.72
71764;BME280;59602;52.142;5.408;2023-01-28T09:32:13;103336.69;;;3.44;71.25
71764;BME280;59602;52.142;5.408;2023-01-28T09:34:40;103338.06;;;3.46;71.65
71764;BME280;59602;52.142;5.408;2023-01-28T09:37:07;103344.00;;;3.48;71.21
71764;BME280;59602;52.142;5.408;2023-01-28T09:39:33;103353.66;;;3.49;71.20
71764;BME280;59602;52.142;5.408;2023-01-28T09:42:25;103350.41;;;3.52;71.41
71764;BME280;59602;52.142;5.408;2023-01-28T09:45:02;103352.31;;;3.57;71.25
71764;BME280;59602;52.142;5.408;2023-01-28T09:47:40;103358.22;;;3.59;71.30
71764;BME280;59602;52.142;5.408;2023-01-28T09:50:14;103344.50;;;3.61;71.50
71764;BME280;59602;52.142;5.408;2023-01-28T09:52:42;103350.16;;;3.59;71.77
71764;BME280;59602;52.142;5.408;2023-01-28T09:55:21;103340.50;;;3.53;71.12
71764;BME280;59602;52.142;5.408;2023-01-28T09:57:52;103338.88;;;3.47;71.12
71764;BME280;59602;52.142;5.408;2023-01-28T10:00:23;103353.91;;;3.48;71.53
71764;BME280;59602;52.142;5.408;2023-01-28T10:05:43;103357.16;;;3.55;72.16
71764;BME280;59602;52.142;5.408;2023-01-28T10:08:25;103357.16;;;3.60;72.00
71764;BME280;59602;52.142;5.408;2023-01-28T10:11:15;103355.00;;;3.62;71.60
71764;BME280;59602;52.142;5.408;2023-01-28T10:14:02;103359.59;;;3.62;71.03
71764;BME280;59602;52.142;5.408;2023-01-28T10:16:39;103364.97;;;3.67;70.56
71764;BME280;59602;52.142;5.408;2023-01-28T10:19:23;103357.94;;;3.66;70.70
71764;BME280;59602;52.142;5.408;2023-01-28T10:21:55;103355.28;;;3.71;70.67
71764;BME280;59602;52.142;5.408;2023-01-28T10:24:26;103344.75;;;3.74;70.84
71764;BME280;59602;52.142;5.408;2023-01-28T10:26:55;103338.56;;;3.79;70.83
71764;BME280;59602;52.142;5.408;2023-01-28T10:29:27;103342.59;;;3.82;70.69
71764;BME280;59602;52.142;5.408;2023-01-28T10:31:59;103345.03;;;3.83;71.14
71764;BME280;59602;52.142;5.408;2023-01-28T10:34:28;103331.56;;;3.83;70.14
71764;BME280;59602;52.142;5.408;2023-01-28T10:36:56;103337.22;;;3.87;71.02
71764;BME280;59602;52.142;5.408;2023-01-28T10:39:24;103333.19;;;3.89;69.87
71764;BME280;59602;52.142;5.408;2023-01-28T10:41:51;103341.53;;;3.93;69.53
71764;BME280;59602;52.142;5.408;2023-01-28T10:44:33;103334.50;;;3.97;69.61
71764;BME280;59602;52.142;5.408;2023-01-28T10:47:09;103325.38;;;3.98;68.77
71764;BME280;59602;52.142;5.408;2023-01-28T10:49:44;103324.56;;;3.98;68.81
71764;BME280;59602;52.142;5.408;2023-01-28T10:52:13;103321.84;;;4.03;69.21
71764;BME280;59602;52.142;5.408;2023-01-28T10:54:40;103329.91;;;4.08;69.57
71764;BME280;59602;52.142;5.408;2023-01-28T10:57:11;103315.63;;;4.12;69.13
71764;BME280;59602;52.142;5.408;2023-01-28T10:59:39;103310.53;;;4.16;68.87
71764;BME280;59602;52.142;5.408;2023-01-28T11:02:32;103304.56;;;4.19;68.61
71764;BME280;59602;52.142;5.408;2023-01-28T11:07:42;103280.06;;;4.21;68.48
71764;BME280;59602;52.142;5.408;2023-01-28T11:10:29;103276.59;;;4.20;68.39
71764;BME280;59602;52.142;5.408;2023-01-28T11:12:59;103268.22;;;4.22;68.92
71764;BME280;59602;52.142;5.408;2023-01-28T11:15:26;103274.97;;;4.24;68.77
71764;BME280;59602;52.142;5.408;2023-01-28T11:18:03;103264.97;;;4.25;68.38
71764;BME280;59602;52.142;5.408;2023-01-28T11:20:39;103250.69;;;4.29;68.11
71764;BME280;59602;52.142;5.408;2023-01-28T11:23:17;103235.06;;;4.31;68.10
71764;BME280;59602;52.142;5.408;2023-01-28T11:25:44;103234.00;;;4.27;67.55
71764;BME280;59602;52.142;5.408;2023-01-28T11:28:17;103235.09;;;4.21;67.64
71764;BME280;59602;52.142;5.408;2023-01-28T11:30:50;103237.78;;;4.21;67.69
71764;BME280;59602;52.142;5.408;2023-01-28T11:33:30;103221.38;;;4.23;67.49
71764;BME280;59602;52.142;5.408;2023-01-28T11:36:06;103215.69;;;4.29;67.41
71764;BME280;59602;52.142;5.408;2023-01-28T11:38:34;103220.22;;;4.34;68.02
71764;BME280;59602;52.142;5.408;2023-01-28T11:41:01;103210.00;;;4.36;67.85
71764;BME280;59602;52.142;5.408;2023-01-28T11:43:30;103215.59;;;4.40;68.23
71764;BME280;59602;52.142;5.408;2023-01-28T11:51:58;103222.06;;;4.44;68.03
71764;BME280;59602;52.142;5.408;2023-01-28T11:57:25;103232.59;;;4.40;67.92
71764;BME280;59602;52.142;5.408;2023-01-28T12:00:08;103237.47;;;4.38;68.14
71764;BME280;59602;52.142;5.408;2023-01-28T12:02:48;103243.06;;;4.42;67.66
71764;BME280;59602;52.142;5.408;2023-01-28T12:11:22;103237.13;;;4.50;68.20
71764;BME280;59602;52.142;5.408;2023-01-28T12:18:56;103236.00;;;4.56;67.40
71764;BME280;59602;52.142;5.408;2023-01-28T12:27:05;103251.88;;;4.57;67.64
71764;BME280;59602;52.142;5.408;2023-01-28T12:37:33;103237.78;;;4.71;67.88
71764;BME280;59602;52.142;5.408;2023-01-28T12:40:30;103232.41;;;4.71;68.08
71764;BME280;59602;52.142;5.408;2023-01-28T12:43:04;103237.78;;;4.71;67.64
71764;BME280;59602;52.142;5.408;2023-01-28T12:45:43;103225.13;;;4.71;67.39
71764;BME280;59602;52.142;5.408;2023-01-28T12:48:16;103232.13;;;4.72;66.95
71764;BME280;59602;52.142;5.408;2023-01-28T12:50:51;103219.19;;;4.74;66.69
71764;BME280;59602;52.142;5.408;2023-01-28T12:53:29;103218.91;;;4.76;66.55
71764;BME280;59602;52.142;5.408;2023-01-28T12:58:49;103207.28;;;4.81;66.55
71764;BME280;59602;52.142;5.408;2023-01-28T13:01:27;103194.59;;;4.81;66.02
71764;BME280;59602;52.142;5.408;2023-01-28T13:04:08;103185.19;;;4.78;65.96
71764;BME280;59602;52.142;5.408;2023-01-28T13:06:40;103178.97;;;4.83;66.46
71764;BME280;59602;52.142;5.408;2023-01-28T13:09:16;103172.19;;;4.86;67.30
71764;BME280;59602;52.142;5.408;2023-01-28T13:11:49;103166.22;;;4.89;66.81
71764;BME280;59602;52.142;5.408;2023-01-28T13:14:17;103159.25;;;4.88;66.80
71764;BME280;59602;52.142;5.408;2023-01-28T13:16:45;103162.78;;;4.83;66.11
71764;BME280;59602;52.142;5.408;2023-01-28T13:21:45;103171.66;;;4.84;66.01
71764;BME280;59602;52.142;5.408;2023-01-28T13:26:43;103173.31;;;4.79;66.10
71764;BME280;59602;52.142;5.408;2023-01-28T13:31:43;103161.41;;;4.86;66.24
71764;BME280;59602;52.142;5.408;2023-01-28T13:37:01;103152.75;;;4.89;66.33
71764;BME280;59602;52.142;5.408;2023-01-28T13:39:33;103161.34;;;4.91;67.42
71764;BME280;59602;52.142;5.408;2023-01-28T13:42:20;103163.78;;;4.92;68.31
71764;BME280;59602;52.142;5.408;2023-01-28T13:44:48;103162.19;;;4.91;67.15
71764;BME280;59602;52.142;5.408;2023-01-28T13:49:54;103173.25;;;4.90;66.35
71764;BME280;59602;52.142;5.408;2023-01-28T13:52:27;103164.88;;;4.91;66.70
71764;BME280;59602;52.142;5.408;2023-01-28T13:55:01;103155.44;;;4.89;66.99
71764;BME280;59602;52.142;5.408;2023-01-28T14:00:18;103157.66;;;4.87;65.98
71764;BME280;59602;52.142;5.408;2023-01-28T14:14:42;103197.25;;;4.86;67.27
71764;BME280;59602;52.142;5.408;2023-01-28T14:20:17;103194.84;;;4.85;67.73
71764;BME280;59602;52.142;5.408;2023-01-28T14:22:44;103195.38;;;4.87;67.22
71764;BME280;59602;52.142;5.408;2023-01-28T14:25:14;103179.22;;;4.87;66.44
71764;BME280;59602;52.142;5.408;2023-01-28T14:27:45;103172.19;;;4.86;66.61
71764;BME280;59602;52.142;5.408;2023-01-28T14:30:22;103173.00;;;4.86;67.00
71764;BME280;59602;52.142;5.408;2023-01-28T14:32:52;103166.81;;;4.86;66.98
71764;BME280;59602;52.142;5.408;2023-01-28T14:35:28;103175.69;;;4.86;67.86
71764;BME280;59602;52.142;5.408;2023-01-28T14:37:56;103167.91;;;4.85;67.29
71764;BME280;59602;52.142;5.408;2023-01-28T14:40:24;103171.66;;;4.84;67.40
71764;BME280;59602;52.142;5.408;2023-01-28T14:42:53;103175.47;;;4.83;66.90